Česky Dansk Deutsch English Español Suomi Français Magyar Italiano Nederlands norsk Polski Português svenska Türkçe

 

Het Weer

Phrae (Thailand)

17:00, 22 juli 2016 (GMT)

NWNNE
WE
SWSSE
Home            
Phrae Uttaradit Lampang Nan Chiang Mai Phitsanulok Tak Loei Chiang Rai Sayaboury Mae Sariang Mae Sot Vientiane Nakhon Sawan Nong Khai Mae Hong Son Luang-Prabang Udon Thani Hpa-An Moulmein Chaiyaphum Khon Kaen Kengtung

Om een weerknop op uw website of weblog te plaatsen, copieer onderstaande code en plak die in uw pagina. In het eerste vakje staat HTML-code, in het tweede vakje UBB-code.


Add to Google

Details

Visibility: 3000 m, 3.0 km, 9843 ft, 1.9 miles
Het Weer:moderate
moderate
Temperature:27°C, 81°F
Gefühlte Temperatur:31°C, 87°F
Dew-point:24°C, 75°F
Atmospheric pressure:1011 hPa, 758.3 mmHg, 29.85 inHg, 0.998 atm
Relative humidity:83.7 %
METAR:VTCP 221700Z AUTO 00000KT 3000 27/24 Q1011

Snelkoppelingen

Actuele weersinformatie van de hele wereld. Voeg locaties toe met het plus (+) symbool. Deze snelkoppelingen kunnen worden toegevoegd aan Google.

Lid van de Technetium groep

website free tracking
StatCounter NetStat W3C Validator

04-08-2020 01:22:31
astro.technetium.be money.technetium.be phote.technetium.be tafeltennistafel.technetium.be www.ligfiets.net